sensor_id;sensor_type;location;lat;lon;timestamp;temperature;humidity
45685;DHT22;46836;48.388;16.210;2023-02-15T00:02:00;4.80;99.90
45685;DHT22;46836;48.388;16.210;2023-02-15T00:04:28;4.80;99.90
45685;DHT22;46836;48.388;16.210;2023-02-15T00:07:18;4.80;99.90
45685;DHT22;46836;48.388;16.210;2023-02-15T00:09:47;4.80;99.90
45685;DHT22;46836;48.388;16.210;2023-02-15T00:12:14;4.80;99.90
45685;DHT22;46836;48.388;16.210;2023-02-15T00:14:42;4.80;99.90
45685;DHT22;46836;48.388;16.210;2023-02-15T00:17:09;4.80;99.90
45685;DHT22;46836;48.388;16.210;2023-02-15T00:19:36;4.80;99.90
45685;DHT22;46836;48.388;16.210;2023-02-15T00:22:04;4.90;99.90
45685;DHT22;46836;48.388;16.210;2023-02-15T00:24:31;4.90;99.90
45685;DHT22;46836;48.388;16.210;2023-02-15T00:26:58;4.90;99.90
45685;DHT22;46836;48.388;16.210;2023-02-15T00:29:25;4.90;99.90
45685;DHT22;46836;48.388;16.210;2023-02-15T00:31:52;4.90;99.90
45685;DHT22;46836;48.388;16.210;2023-02-15T00:34:22;4.90;99.90
45685;DHT22;46836;48.388;16.210;2023-02-15T00:36:50;4.90;99.90
45685;DHT22;46836;48.388;16.210;2023-02-15T00:39:18;4.90;99.90
45685;DHT22;46836;48.388;16.210;2023-02-15T00:41:46;4.90;99.90
45685;DHT22;46836;48.388;16.210;2023-02-15T00:44:14;4.90;99.90
45685;DHT22;46836;48.388;16.210;2023-02-15T00:46:42;4.90;99.90
45685;DHT22;46836;48.388;16.210;2023-02-15T00:49:10;4.90;99.90
45685;DHT22;46836;48.388;16.210;2023-02-15T00:51:37;4.90;99.90
45685;DHT22;46836;48.388;16.210;2023-02-15T00:54:05;4.90;99.90
45685;DHT22;46836;48.388;16.210;2023-02-15T00:56:32;4.90;99.90
45685;DHT22;46836;48.388;16.210;2023-02-15T00:58:59;4.90;99.90
45685;DHT22;46836;48.388;16.210;2023-02-15T01:01:26;4.90;99.90
45685;DHT22;46836;48.388;16.210;2023-02-15T01:03:53;4.90;99.90
45685;DHT22;46836;48.388;16.210;2023-02-15T01:06:20;4.90;99.90
45685;DHT22;46836;48.388;16.210;2023-02-15T01:08:48;4.90;99.90
45685;DHT22;46836;48.388;16.210;2023-02-15T01:11:20;5.00;99.90
45685;DHT22;46836;48.388;16.210;2023-02-15T01:13:53;4.90;99.90
45685;DHT22;46836;48.388;16.210;2023-02-15T01:16:21;4.90;99.90
45685;DHT22;46836;48.388;16.210;2023-02-15T01:18:49;4.90;99.90
45685;DHT22;46836;48.388;16.210;2023-02-15T01:21:19;4.90;99.90
45685;DHT22;46836;48.388;16.210;2023-02-15T01:23:47;4.80;99.90
45685;DHT22;46836;48.388;16.210;2023-02-15T01:26:15;4.80;99.90
45685;DHT22;46836;48.388;16.210;2023-02-15T01:28:42;4.70;99.90
45685;DHT22;46836;48.388;16.210;2023-02-15T01:31:12;4.80;99.90
45685;DHT22;46836;48.388;16.210;2023-02-15T01:33:39;4.70;99.90
45685;DHT22;46836;48.388;16.210;2023-02-15T01:36:06;4.80;99.90
45685;DHT22;46836;48.388;16.210;2023-02-15T01:38:35;4.70;99.90
45685;DHT22;46836;48.388;16.210;2023-02-15T01:41:03;4.70;99.90
45685;DHT22;46836;48.388;16.210;2023-02-15T01:43:54;4.70;99.90
45685;DHT22;46836;48.388;16.210;2023-02-15T01:49:00;4.70;99.90
45685;DHT22;46836;48.388;16.210;2023-02-15T01:51:31;4.70;99.90
45685;DHT22;46836;48.388;16.210;2023-02-15T01:54:05;4.70;99.90
45685;DHT22;46836;48.388;16.210;2023-02-15T01:56:36;4.70;99.90
45685;DHT22;46836;48.388;16.210;2023-02-15T01:59:08;4.70;99.90
45685;DHT22;46836;48.388;16.210;2023-02-15T02:01:37;4.70;99.90
45685;DHT22;46836;48.388;16.210;2023-02-15T02:06:33;4.80;99.90
45685;DHT22;46836;48.388;16.210;2023-02-15T02:09:02;4.90;99.90
45685;DHT22;46836;48.388;16.210;2023-02-15T02:11:29;4.90;99.90
45685;DHT22;46836;48.388;16.210;2023-02-15T02:13:56;4.80;99.90
45685;DHT22;46836;48.388;16.210;2023-02-15T02:24:39;4.80;99.90
45685;DHT22;46836;48.388;16.210;2023-02-15T02:36:00;4.80;99.90
45685;DHT22;46836;48.388;16.210;2023-02-15T02:41:32;4.80;99.90
45685;DHT22;46836;48.388;16.210;2023-02-15T02:46:57;4.80;99.90
45685;DHT22;46836;48.388;16.210;2023-02-15T02:49:41;4.80;99.90
45685;DHT22;46836;48.388;16.210;2023-02-15T02:52:34;4.80;99.90
45685;DHT22;46836;48.388;16.210;2023-02-15T02:55:13;4.80;99.90
45685;DHT22;46836;48.388;16.210;2023-02-15T03:01:06;4.70;99.90
45685;DHT22;46836;48.388;16.210;2023-02-15T03:03:48;4.70;99.90
45685;DHT22;46836;48.388;16.210;2023-02-15T03:06:20;4.70;99.90
45685;DHT22;46836;48.388;16.210;2023-02-15T03:08:51;4.70;99.90
45685;DHT22;46836;48.388;16.210;2023-02-15T03:11:21;4.60;99.90
45685;DHT22;46836;48.388;16.210;2023-02-15T03:13:49;4.70;99.90
45685;DHT22;46836;48.388;16.210;2023-02-15T03:16:18;4.70;99.90
45685;DHT22;46836;48.388;16.210;2023-02-15T03:19:00;4.70;99.90
45685;DHT22;46836;48.388;16.210;2023-02-15T03:21:48;4.70;99.90
45685;DHT22;46836;48.388;16.210;2023-02-15T03:27:24;4.60;99.90
45685;DHT22;46836;48.388;16.210;2023-02-15T03:29:58;4.60;99.90
45685;DHT22;46836;48.388;16.210;2023-02-15T03:32:29;4.60;99.90
45685;DHT22;46836;48.388;16.210;2023-02-15T03:34:57;4.60;99.90
45685;DHT22;46836;48.388;16.210;2023-02-15T03:37:29;4.60;99.90
45685;DHT22;46836;48.388;16.210;2023-02-15T03:40:03;4.50;99.90
45685;DHT22;46836;48.388;16.210;2023-02-15T03:45:40;4.50;99.90
45685;DHT22;46836;48.388;16.210;2023-02-15T03:48:35;4.50;99.90
45685;DHT22;46836;48.388;16.210;2023-02-15T03:51:09;4.50;99.90
45685;DHT22;46836;48.388;16.210;2023-02-15T03:53:57;4.50;99.90
45685;DHT22;46836;48.388;16.210;2023-02-15T03:56:25;4.50;99.90
45685;DHT22;46836;48.388;16.210;2023-02-15T03:58:53;4.50;99.90
45685;DHT22;46836;48.388;16.210;2023-02-15T04:01:40;4.60;99.90
45685;DHT22;46836;48.388;16.210;2023-02-15T04:04:38;4.60;99.90
45685;DHT22;46836;48.388;16.210;2023-02-15T04:07:08;4.60;99.90
45685;DHT22;46836;48.388;16.210;2023-02-15T04:09:35;4.60;99.90
45685;DHT22;46836;48.388;16.210;2023-02-15T04:12:22;4.50;99.90
45685;DHT22;46836;48.388;16.210;2023-02-15T04:14:49;4.50;99.90
45685;DHT22;46836;48.388;16.210;2023-02-15T04:17:36;4.60;99.90
45685;DHT22;46836;48.388;16.210;2023-02-15T04:20:04;4.60;99.90
45685;DHT22;46836;48.388;16.210;2023-02-15T04:22:50;4.50;99.90
45685;DHT22;46836;48.388;16.210;2023-02-15T04:25:36;4.50;99.90
45685;DHT22;46836;48.388;16.210;2023-02-15T04:28:04;4.50;99.90
45685;DHT22;46836;48.388;16.210;2023-02-15T04:30:31;4.50;99.90
45685;DHT22;46836;48.388;16.210;2023-02-15T04:32:58;4.50;99.90
45685;DHT22;46836;48.388;16.210;2023-02-15T04:35:25;4.40;99.90
45685;DHT22;46836;48.388;16.210;2023-02-15T04:37:52;4.40;99.90
45685;DHT22;46836;48.388;16.210;2023-02-15T04:40:19;4.50;99.90
45685;DHT22;46836;48.388;16.210;2023-02-15T04:42:49;4.50;99.90
45685;DHT22;46836;48.388;16.210;2023-02-15T04:45:17;4.50;99.90
45685;DHT22;46836;48.388;16.210;2023-02-15T04:47:44;4.50;99.90
45685;DHT22;46836;48.388;16.210;2023-02-15T04:50:11;4.50;99.90
45685;DHT22;46836;48.388;16.210;2023-02-15T04:52:39;4.60;99.90
45685;DHT22;46836;48.388;16.210;2023-02-15T04:55:06;4.60;99.90
45685;DHT22;46836;48.388;16.210;2023-02-15T04:57:33;4.60;99.90
45685;DHT22;46836;48.388;16.210;2023-02-15T05:00:00;4.50;99.90
45685;DHT22;46836;48.388;16.210;2023-02-15T05:02:27;4.50;99.90
45685;DHT22;46836;48.388;16.210;2023-02-15T05:04:54;4.40;99.90
45685;DHT22;46836;48.388;16.210;2023-02-15T05:07:22;4.40;99.90
45685;DHT22;46836;48.388;16.210;2023-02-15T05:09:49;4.50;99.90
45685;DHT22;46836;48.388;16.210;2023-02-15T05:12:16;4.50;99.90
45685;DHT22;46836;48.388;16.210;2023-02-15T05:14:43;4.50;99.90
45685;DHT22;46836;48.388;16.210;2023-02-15T05:17:10;4.50;99.90
45685;DHT22;46836;48.388;16.210;2023-02-15T05:19:37;4.40;99.90
45685;DHT22;46836;48.388;16.210;2023-02-15T05:22:04;4.40;99.90
45685;DHT22;46836;48.388;16.210;2023-02-15T05:24:31;4.40;99.90
45685;DHT22;46836;48.388;16.210;2023-02-15T05:27:17;4.40;99.90
45685;DHT22;46836;48.388;16.210;2023-02-15T05:30:02;4.40;99.90
45685;DHT22;46836;48.388;16.210;2023-02-15T05:32:30;4.40;99.90
45685;DHT22;46836;48.388;16.210;2023-02-15T05:34:57;4.40;99.90
45685;DHT22;46836;48.388;16.210;2023-02-15T05:37:24;4.40;99.90
45685;DHT22;46836;48.388;16.210;2023-02-15T05:39:51;4.40;99.90
45685;DHT22;46836;48.388;16.210;2023-02-15T05:42:18;4.40;99.90
45685;DHT22;46836;48.388;16.210;2023-02-15T05:44:45;4.40;99.90
45685;DHT22;46836;48.388;16.210;2023-02-15T05:47:12;4.30;99.90
45685;DHT22;46836;48.388;16.210;2023-02-15T05:49:39;4.30;99.90
45685;DHT22;46836;48.388;16.210;2023-02-15T05:52:06;4.30;99.90
45685;DHT22;46836;48.388;16.210;2023-02-15T05:54:33;4.30;99.90
45685;DHT22;46836;48.388;16.210;2023-02-15T05:57:00;4.30;99.90
45685;DHT22;46836;48.388;16.210;2023-02-15T05:59:27;4.30;99.90
45685;DHT22;46836;48.388;16.210;2023-02-15T06:01:54;4.20;99.90
45685;DHT22;46836;48.388;16.210;2023-02-15T06:04:21;4.20;99.90
45685;DHT22;46836;48.388;16.210;2023-02-15T06:06:48;4.20;99.90
45685;DHT22;46836;48.388;16.210;2023-02-15T06:09:15;4.20;99.90
45685;DHT22;46836;48.388;16.210;2023-02-15T06:11:45;4.20;99.90
45685;DHT22;46836;48.388;16.210;2023-02-15T06:14:12;4.20;99.90
45685;DHT22;46836;48.388;16.210;2023-02-15T06:16:39;4.30;99.90
45685;DHT22;46836;48.388;16.210;2023-02-15T06:19:06;4.20;99.90
45685;DHT22;46836;48.388;16.210;2023-02-15T06:21:33;4.20;99.90
45685;DHT22;46836;48.388;16.210;2023-02-15T06:24:00;4.30;99.90
45685;DHT22;46836;48.388;16.210;2023-02-15T06:26:27;4.30;99.90
45685;DHT22;46836;48.388;16.210;2023-02-15T06:28:55;4.30;99.90
45685;DHT22;46836;48.388;16.210;2023-02-15T06:31:22;4.30;99.90
45685;DHT22;46836;48.388;16.210;2023-02-15T06:33:49;4.30;99.90
45685;DHT22;46836;48.388;16.210;2023-02-15T06:36:16;4.40;99.90
45685;DHT22;46836;48.388;16.210;2023-02-15T06:38:43;4.30;99.90
45685;DHT22;46836;48.388;16.210;2023-02-15T06:41:10;4.30;99.90
45685;DHT22;46836;48.388;16.210;2023-02-15T06:43:37;4.30;99.90
45685;DHT22;46836;48.388;16.210;2023-02-15T06:46:06;4.30;99.90
45685;DHT22;46836;48.388;16.210;2023-02-15T06:48:33;4.30;99.90
45685;DHT22;46836;48.388;16.210;2023-02-15T06:51:00;4.30;99.90
45685;DHT22;46836;48.388;16.210;2023-02-15T06:53:28;4.40;99.90
45685;DHT22;46836;48.388;16.210;2023-02-15T06:56:03;4.40;99.90
45685;DHT22;46836;48.388;16.210;2023-02-15T06:58:40;4.50;99.90
45685;DHT22;46836;48.388;16.210;2023-02-15T07:01:08;4.50;99.90
45685;DHT22;46836;48.388;16.210;2023-02-15T07:03:36;4.50;99.90
45685;DHT22;46836;48.388;16.210;2023-02-15T07:06:04;4.60;99.90
45685;DHT22;46836;48.388;16.210;2023-02-15T07:08:36;4.60;99.90
45685;DHT22;46836;48.388;16.210;2023-02-15T07:11:03;4.70;99.90
45685;DHT22;46836;48.388;16.210;2023-02-15T07:13:49;4.60;99.90
45685;DHT22;46836;48.388;16.210;2023-02-15T07:16:16;4.70;99.90
45685;DHT22;46836;48.388;16.210;2023-02-15T07:18:43;4.70;99.90
45685;DHT22;46836;48.388;16.210;2023-02-15T07:21:10;4.70;99.90
45685;DHT22;46836;48.388;16.210;2023-02-15T07:23:38;4.70;99.90
45685;DHT22;46836;48.388;16.210;2023-02-15T07:26:07;4.80;99.90
45685;DHT22;46836;48.388;16.210;2023-02-15T07:28:35;4.80;99.90
45685;DHT22;46836;48.388;16.210;2023-02-15T07:31:04;4.90;99.90
45685;DHT22;46836;48.388;16.210;2023-02-15T07:33:32;4.90;99.90
45685;DHT22;46836;48.388;16.210;2023-02-15T07:36:01;4.90;99.90
45685;DHT22;46836;48.388;16.210;2023-02-15T07:38:34;4.80;99.90
45685;DHT22;46836;48.388;16.210;2023-02-15T07:41:04;4.80;99.90
45685;DHT22;46836;48.388;16.210;2023-02-15T07:43:37;4.80;99.90
45685;DHT22;46836;48.388;16.210;2023-02-15T07:46:07;4.80;99.90
45685;DHT22;46836;48.388;16.210;2023-02-15T07:48:36;4.80;99.90
45685;DHT22;46836;48.388;16.210;2023-02-15T07:51:06;4.80;99.90
45685;DHT22;46836;48.388;16.210;2023-02-15T07:53:35;4.90;99.90
45685;DHT22;46836;48.388;16.210;2023-02-15T07:56:05;5.00;99.90
45685;DHT22;46836;48.388;16.210;2023-02-15T07:58:33;5.10;99.90
45685;DHT22;46836;48.388;16.210;2023-02-15T08:01:19;5.10;99.90
45685;DHT22;46836;48.388;16.210;2023-02-15T08:03:48;5.20;99.90
45685;DHT22;46836;48.388;16.210;2023-02-15T08:06:15;5.20;99.90
45685;DHT22;46836;48.388;16.210;2023-02-15T08:08:43;5.20;99.90
45685;DHT22;46836;48.388;16.210;2023-02-15T08:11:22;5.20;99.90
45685;DHT22;46836;48.388;16.210;2023-02-15T08:16:54;5.20;99.90
45685;DHT22;46836;48.388;16.210;2023-02-15T08:19:27;5.20;99.90
45685;DHT22;46836;48.388;16.210;2023-02-15T08:21:59;5.20;99.90
45685;DHT22;46836;48.388;16.210;2023-02-15T08:24:29;5.30;99.90
45685;DHT22;46836;48.388;16.210;2023-02-15T08:26:56;5.30;99.90
45685;DHT22;46836;48.388;16.210;2023-02-15T08:29:28;5.30;99.90
45685;DHT22;46836;48.388;16.210;2023-02-15T08:31:58;5.30;99.90
45685;DHT22;46836;48.388;16.210;2023-02-15T08:34:31;5.40;99.90
45685;DHT22;46836;48.388;16.210;2023-02-15T08:36:58;5.50;99.90
45685;DHT22;46836;48.388;16.210;2023-02-15T08:39:26;5.50;99.90
45685;DHT22;46836;48.388;16.210;2023-02-15T08:41:53;5.50;99.90
45685;DHT22;46836;48.388;16.210;2023-02-15T08:44:20;5.60;99.90
45685;DHT22;46836;48.388;16.210;2023-02-15T08:46:49;5.60;99.90
45685;DHT22;46836;48.388;16.210;2023-02-15T08:49:21;5.80;99.90
45685;DHT22;46836;48.388;16.210;2023-02-15T08:51:49;5.80;99.90
45685;DHT22;46836;48.388;16.210;2023-02-15T08:54:20;5.90;99.90
45685;DHT22;46836;48.388;16.210;2023-02-15T08:56:48;5.90;99.90
45685;DHT22;46836;48.388;16.210;2023-02-15T08:59:17;6.00;99.90
45685;DHT22;46836;48.388;16.210;2023-02-15T09:01:46;6.00;99.90
45685;DHT22;46836;48.388;16.210;2023-02-15T09:04:13;6.00;99.90
45685;DHT22;46836;48.388;16.210;2023-02-15T09:06:44;5.90;99.90
45685;DHT22;46836;48.388;16.210;2023-02-15T09:09:15;6.00;99.90
45685;DHT22;46836;48.388;16.210;2023-02-15T09:11:44;6.10;99.90
45685;DHT22;46836;48.388;16.210;2023-02-15T09:14:17;6.20;99.90
45685;DHT22;46836;48.388;16.210;2023-02-15T09:16:45;6.20;99.90
45685;DHT22;46836;48.388;16.210;2023-02-15T09:19:17;6.30;99.90
45685;DHT22;46836;48.388;16.210;2023-02-15T09:21:45;6.30;99.90
45685;DHT22;46836;48.388;16.210;2023-02-15T09:24:14;6.40;99.90
45685;DHT22;46836;48.388;16.210;2023-02-15T09:26:44;6.50;99.90
45685;DHT22;46836;48.388;16.210;2023-02-15T09:29:13;6.50;99.90
45685;DHT22;46836;48.388;16.210;2023-02-15T09:31:45;6.50;99.90
45685;DHT22;46836;48.388;16.210;2023-02-15T09:34:14;6.50;99.90
45685;DHT22;46836;48.388;16.210;2023-02-15T09:36:43;6.50;99.90
45685;DHT22;46836;48.388;16.210;2023-02-15T09:39:19;6.50;99.90
45685;DHT22;46836;48.388;16.210;2023-02-15T09:47:35;6.70;99.90
45685;DHT22;46836;48.388;16.210;2023-02-15T09:55:48;6.90;99.90
45685;DHT22;46836;48.388;16.210;2023-02-15T09:59:28;6.90;99.90
45685;DHT22;46836;48.388;16.210;2023-02-15T10:09:55;6.80;99.90
45685;DHT22;46836;48.388;16.210;2023-02-15T10:12:49;6.80;99.90
45685;DHT22;46836;48.388;16.210;2023-02-15T10:18:01;7.00;99.90
45685;DHT22;46836;48.388;16.210;2023-02-15T10:23:25;7.00;99.90
45685;DHT22;46836;48.388;16.210;2023-02-15T10:28:56;7.00;99.90
45685;DHT22;46836;48.388;16.210;2023-02-15T10:31:27;7.00;99.90
45685;DHT22;46836;48.388;16.210;2023-02-15T10:34:19;7.10;99.90
45685;DHT22;46836;48.388;16.210;2023-02-15T10:43:10;7.50;99.90
45685;DHT22;46836;48.388;16.210;2023-02-15T10:46:05;7.50;99.90
45685;DHT22;46836;48.388;16.210;2023-02-15T10:54:44;7.70;99.90
45685;DHT22;46836;48.388;16.210;2023-02-15T10:59:59;7.70;99.90
45685;DHT22;46836;48.388;16.210;2023-02-15T11:06:31;7.90;99.90
45685;DHT22;46836;48.388;16.210;2023-02-15T11:09:00;8.00;99.90
45685;DHT22;46836;48.388;16.210;2023-02-15T11:11:37;8.20;99.90
45685;DHT22;46836;48.388;16.210;2023-02-15T11:17:10;8.60;99.90
45685;DHT22;46836;48.388;16.210;2023-02-15T11:22:31;8.40;99.90
45685;DHT22;46836;48.388;16.210;2023-02-15T11:25:02;8.70;99.90
45685;DHT22;46836;48.388;16.210;2023-02-15T11:27:42;8.70;99.90
45685;DHT22;46836;48.388;16.210;2023-02-15T11:30:17;8.80;99.90
45685;DHT22;46836;48.388;16.210;2023-02-15T11:32:48;8.90;99.90
45685;DHT22;46836;48.388;16.210;2023-02-15T11:35:37;9.00;99.90
45685;DHT22;46836;48.388;16.210;2023-02-15T11:38:27;9.20;99.90
45685;DHT22;46836;48.388;16.210;2023-02-15T11:41:11;9.20;99.90
45685;DHT22;46836;48.388;16.210;2023-02-15T11:43:49;9.10;99.90
45685;DHT22;46836;48.388;16.210;2023-02-15T11:46:18;8.90;99.90
45685;DHT22;46836;48.388;16.210;2023-02-15T11:48:48;8.80;99.90
45685;DHT22;46836;48.388;16.210;2023-02-15T11:51:18;8.80;99.90
45685;DHT22;46836;48.388;16.210;2023-02-15T11:53:50;8.80;99.90
45685;DHT22;46836;48.388;16.210;2023-02-15T11:56:25;9.00;99.90
45685;DHT22;46836;48.388;16.210;2023-02-15T11:59:18;8.80;99.90
45685;DHT22;46836;48.388;16.210;2023-02-15T12:01:49;8.70;99.90
45685;DHT22;46836;48.388;16.210;2023-02-15T12:10:27;9.00;99.90
45685;DHT22;46836;48.388;16.210;2023-02-15T12:13:19;9.10;99.90
45685;DHT22;46836;48.388;16.210;2023-02-15T12:15:54;9.30;99.90
45685;DHT22;46836;48.388;16.210;2023-02-15T12:18:55;9.30;99.90
45685;DHT22;46836;48.388;16.210;2023-02-15T12:21:38;9.30;99.90
45685;DHT22;46836;48.388;16.210;2023-02-15T12:24:18;9.30;99.90
45685;DHT22;46836;48.388;16.210;2023-02-15T12:27:15;9.40;99.90
45685;DHT22;46836;48.388;16.210;2023-02-15T12:29:55;9.30;99.90
45685;DHT22;46836;48.388;16.210;2023-02-15T12:32:24;9.20;99.90
45685;DHT22;46836;48.388;16.210;2023-02-15T12:34:56;9.20;99.90
45685;DHT22;46836;48.388;16.210;2023-02-15T12:37:29;9.10;99.90
45685;DHT22;46836;48.388;16.210;2023-02-15T12:40:00;9.10;99.90
45685;DHT22;46836;48.388;16.210;2023-02-15T12:42:43;9.10;99.90
45685;DHT22;46836;48.388;16.210;2023-02-15T12:50:42;8.60;99.90
45685;DHT22;46836;48.388;16.210;2023-02-15T12:53:16;8.60;99.90
45685;DHT22;46836;48.388;16.210;2023-02-15T12:55:57;8.60;99.90
45685;DHT22;46836;48.388;16.210;2023-02-15T12:58:27;8.60;99.90
45685;DHT22;46836;48.388;16.210;2023-02-15T13:01:15;8.70;99.90
45685;DHT22;46836;48.388;16.210;2023-02-15T13:06:20;8.60;99.90
45685;DHT22;46836;48.388;16.210;2023-02-15T13:08:52;8.60;99.90
45685;DHT22;46836;48.388;16.210;2023-02-15T13:11:30;8.70;99.90
45685;DHT22;46836;48.388;16.210;2023-02-15T13:14:03;8.60;99.90
45685;DHT22;46836;48.388;16.210;2023-02-15T13:16:41;8.60;99.90
45685;DHT22;46836;48.388;16.210;2023-02-15T13:19:16;8.50;99.90
45685;DHT22;46836;48.388;16.210;2023-02-15T13:21:47;8.50;99.90
45685;DHT22;46836;48.388;16.210;2023-02-15T13:24:37;8.50;99.90
45685;DHT22;46836;48.388;16.210;2023-02-15T13:27:07;8.50;99.90
45685;DHT22;46836;48.388;16.210;2023-02-15T13:29:45;8.50;99.90
45685;DHT22;46836;48.388;16.210;2023-02-15T13:34:56;8.40;99.90
45685;DHT22;46836;48.388;16.210;2023-02-15T13:37:45;8.50;99.90
45685;DHT22;46836;48.388;16.210;2023-02-15T13:40:25;8.50;99.90
45685;DHT22;46836;48.388;16.210;2023-02-15T13:46:11;8.50;99.90
45685;DHT22;46836;48.388;16.210;2023-02-15T13:49:50;8.40;99.90
45685;DHT22;46836;48.388;16.210;2023-02-15T13:57:50;8.30;99.90
45685;DHT22;46836;48.388;16.210;2023-02-15T14:03:23;8.50;99.90
45685;DHT22;46836;48.388;16.210;2023-02-15T14:06:20;8.40;99.90
45685;DHT22;46836;48.388;16.210;2023-02-15T14:08:57;8.40;99.90
45685;DHT22;46836;48.388;16.210;2023-02-15T14:11:44;8.40;99.90
45685;DHT22;46836;48.388;16.210;2023-02-15T14:16:48;8.30;99.90
45685;DHT22;46836;48.388;16.210;2023-02-15T14:22:37;8.10;99.90
45685;DHT22;46836;48.388;16.210;2023-02-15T14:25:25;7.90;99.90
45685;DHT22;46836;48.388;16.210;2023-02-15T14:28:12;7.80;99.90
45685;DHT22;46836;48.388;16.210;2023-02-15T14:30:46;7.80;99.90
45685;DHT22;46836;48.388;16.210;2023-02-15T14:36:16;7.70;99.90
45685;DHT22;46836;48.388;16.210;2023-02-15T14:39:18;7.60;99.90
45685;DHT22;46836;48.388;16.210;2023-02-15T14:45:13;7.40;99.90
45685;DHT22;46836;48.388;16.210;2023-02-15T14:47:47;7.40;99.90
45685;DHT22;46836;48.388;16.210;2023-02-15T14:55:48;7.50;99.90
45685;DHT22;46836;48.388;16.210;2023-02-15T14:58:31;7.50;99.90
45685;DHT22;46836;48.388;16.210;2023-02-15T15:01:10;7.50;99.90
45685;DHT22;46836;48.388;16.210;2023-02-15T15:03:47;7.40;99.90
45685;DHT22;46836;48.388;16.210;2023-02-15T15:06:56;7.40;99.90
45685;DHT22;46836;48.388;16.210;2023-02-15T15:09:28;7.30;99.90
45685;DHT22;46836;48.388;16.210;2023-02-15T15:14:49;7.20;99.90
45685;DHT22;46836;48.388;16.210;2023-02-15T15:17:54;7.10;99.90
45685;DHT22;46836;48.388;16.210;2023-02-15T15:20:50;7.00;99.90
45685;DHT22;46836;48.388;16.210;2023-02-15T15:34:07;6.50;99.90
45685;DHT22;46836;48.388;16.210;2023-02-15T15:39:48;6.30;99.90
45685;DHT22;46836;48.388;16.210;2023-02-15T15:50:52;6.00;99.90
45685;DHT22;46836;48.388;16.210;2023-02-15T15:53:24;5.80;99.90
45685;DHT22;46836;48.388;16.210;2023-02-15T15:55:59;5.70;99.90
45685;DHT22;46836;48.388;16.210;2023-02-15T15:58:28;5.70;99.90
45685;DHT22;46836;48.388;16.210;2023-02-15T16:03:30;5.50;99.90
45685;DHT22;46836;48.388;16.210;2023-02-15T16:05:58;5.40;99.90
45685;DHT22;46836;48.388;16.210;2023-02-15T16:11:12;5.30;99.90
45685;DHT22;46836;48.388;16.210;2023-02-15T16:13:44;5.30;99.90
45685;DHT22;46836;48.388;16.210;2023-02-15T16:16:13;5.20;99.90
45685;DHT22;46836;48.388;16.210;2023-02-15T16:18:47;5.10;99.90
45685;DHT22;46836;48.388;16.210;2023-02-15T16:21:24;5.00;99.90
45685;DHT22;46836;48.388;16.210;2023-02-15T16:24:21;4.90;99.90
45685;DHT22;46836;48.388;16.210;2023-02-15T16:29:37;4.80;99.90
45685;DHT22;46836;48.388;16.210;2023-02-15T16:32:17;4.70;99.90
45685;DHT22;46836;48.388;16.210;2023-02-15T16:34:54;4.70;99.90
45685;DHT22;46836;48.388;16.210;2023-02-15T16:37:26;4.60;99.90
45685;DHT22;46836;48.388;16.210;2023-02-15T16:39:55;4.50;99.90
45685;DHT22;46836;48.388;16.210;2023-02-15T16:42:24;4.50;99.90
45685;DHT22;46836;48.388;16.210;2023-02-15T16:45:04;4.40;99.90
45685;DHT22;46836;48.388;16.210;2023-02-15T16:47:40;4.40;99.90
45685;DHT22;46836;48.388;16.210;2023-02-15T16:50:40;4.30;99.90
45685;DHT22;46836;48.388;16.210;2023-02-15T16:53:13;4.30;99.90
45685;DHT22;46836;48.388;16.210;2023-02-15T16:55:55;4.20;99.90
45685;DHT22;46836;48.388;16.210;2023-02-15T16:58:44;4.20;99.90
45685;DHT22;46836;48.388;16.210;2023-02-15T17:01:15;4.10;99.90
45685;DHT22;46836;48.388;16.210;2023-02-15T17:03:43;4.00;99.90
45685;DHT22;46836;48.388;16.210;2023-02-15T17:06:25;4.00;99.90
45685;DHT22;46836;48.388;16.210;2023-02-15T17:09:06;3.90;99.90
45685;DHT22;46836;48.388;16.210;2023-02-15T17:11:42;3.90;99.90
45685;DHT22;46836;48.388;16.210;2023-02-15T17:14:13;3.80;99.90
45685;DHT22;46836;48.388;16.210;2023-02-15T17:16:44;3.80;99.90
45685;DHT22;46836;48.388;16.210;2023-02-15T17:19:44;3.80;99.90
45685;DHT22;46836;48.388;16.210;2023-02-15T17:22:20;3.70;99.90
45685;DHT22;46836;48.388;16.210;2023-02-15T17:24:50;3.70;99.90
45685;DHT22;46836;48.388;16.210;2023-02-15T17:27:26;3.60;99.90
45685;DHT22;46836;48.388;16.210;2023-02-15T17:30:00;3.60;99.90
45685;DHT22;46836;48.388;16.210;2023-02-15T17:32:32;3.60;99.90
45685;DHT22;46836;48.388;16.210;2023-02-15T17:40:26;3.50;99.90
45685;DHT22;46836;48.388;16.210;2023-02-15T17:42:54;3.50;99.90
45685;DHT22;46836;48.388;16.210;2023-02-15T17:45:26;3.40;99.90
45685;DHT22;46836;48.388;16.210;2023-02-15T17:47:55;3.40;99.90
45685;DHT22;46836;48.388;16.210;2023-02-15T17:50:27;3.30;99.90
45685;DHT22;46836;48.388;16.210;2023-02-15T17:52:57;3.30;99.90
45685;DHT22;46836;48.388;16.210;2023-02-15T17:55:26;3.30;99.90
45685;DHT22;46836;48.388;16.210;2023-02-15T17:58:11;3.30;99.90
45685;DHT22;46836;48.388;16.210;2023-02-15T18:00:47;3.20;99.90
45685;DHT22;46836;48.388;16.210;2023-02-15T18:06:30;3.20;99.90
45685;DHT22;46836;48.388;16.210;2023-02-15T18:09:19;3.20;99.90
45685;DHT22;46836;48.388;16.210;2023-02-15T18:12:20;3.10;99.90
45685;DHT22;46836;48.388;16.210;2023-02-15T18:14:50;3.10;99.90
45685;DHT22;46836;48.388;16.210;2023-02-15T18:17:35;3.00;99.90
45685;DHT22;46836;48.388;16.210;2023-02-15T18:20:14;3.00;99.90
45685;DHT22;46836;48.388;16.210;2023-02-15T18:22:45;2.90;99.90
45685;DHT22;46836;48.388;16.210;2023-02-15T18:25:19;2.90;99.90
45685;DHT22;46836;48.388;16.210;2023-02-15T18:27:53;2.90;99.90
45685;DHT22;46836;48.388;16.210;2023-02-15T18:30:23;2.90;99.90
45685;DHT22;46836;48.388;16.210;2023-02-15T18:32:56;2.80;99.90
45685;DHT22;46836;48.388;16.210;2023-02-15T18:35:29;2.80;99.90
45685;DHT22;46836;48.388;16.210;2023-02-15T18:38:00;2.80;99.90
45685;DHT22;46836;48.388;16.210;2023-02-15T18:40:29;2.80;99.90
45685;DHT22;46836;48.388;16.210;2023-02-15T18:42:59;2.80;99.90
45685;DHT22;46836;48.388;16.210;2023-02-15T18:45:28;2.70;99.90
45685;DHT22;46836;48.388;16.210;2023-02-15T18:48:05;2.70;99.90
45685;DHT22;46836;48.388;16.210;2023-02-15T18:50:55;2.70;99.90
45685;DHT22;46836;48.388;16.210;2023-02-15T18:53:24;2.60;99.90
45685;DHT22;46836;48.388;16.210;2023-02-15T18:55:52;2.60;99.90
45685;DHT22;46836;48.388;16.210;2023-02-15T18:58:21;2.60;99.90
45685;DHT22;46836;48.388;16.210;2023-02-15T19:00:54;2.60;99.90
45685;DHT22;46836;48.388;16.210;2023-02-15T19:03:25;2.50;99.90
45685;DHT22;46836;48.388;16.210;2023-02-15T19:05:54;2.50;99.90
45685;DHT22;46836;48.388;16.210;2023-02-15T19:08:23;2.50;99.90
45685;DHT22;46836;48.388;16.210;2023-02-15T19:10:53;2.50;99.90